Time;durP1;ratioP1;P1;durP2;ratioP2;P2;SDS_P1;SDS_P2;PMS_P1;PMS_P2;Temp;Humidity;BMP_temperature;BMP_pressure;BME280_temperature;BME280_humidity;BME280_pressure;Samples;Min_cycle;Max_cycle;Signal;HPM_P1;HPM_P2
2022/09/11 00:00:49;;;;;;;4.83;3.13;;;16.20;99.90;;;;;;5098764;28;20620;-83
2022/09/11 00:03:17;;;;;;;3.13;2.63;;;16.20;99.90;;;;;;5099526;28;20203;-85
2022/09/11 00:05:43;;;;;;;9.23;3.03;;;16.20;99.90;;;;;;5095120;28;20181;-85
2022/09/11 00:08:11;;;;;;;3.63;2.67;;;16.20;99.90;;;;;;5097795;28;20179;-84
2022/09/11 00:10:39;;;;;;;2.83;2.53;;;16.20;99.90;;;;;;5096806;28;20231;-85
2022/09/11 00:13:06;;;;;;;3.13;2.80;;;16.20;99.90;;;;;;5094109;28;20179;-84
2022/09/11 00:15:40;;;;;;;4.77;2.70;;;16.20;99.90;;;;;;5099457;28;20198;-84
2022/09/11 00:18:07;;;;;;;3.50;2.77;;;16.30;99.90;;;;;;5098808;28;20186;-83
2022/09/11 00:20:34;;;;;;;3.23;2.53;;;16.20;99.90;;;;;;5095886;28;20321;-85
2022/09/11 00:23:03;;;;;;;3.13;2.67;;;16.30;99.90;;;;;;5098998;28;20191;-85
2022/09/11 00:25:34;;;;;;;4.13;2.47;;;16.40;99.90;;;;;;5104966;28;20207;-85
2022/09/11 00:28:01;;;;;;;2.83;2.63;;;16.30;99.90;;;;;;5096901;28;20277;-85
2022/09/11 00:30:28;;;;;;;4.20;2.90;;;16.40;99.90;;;;;;5102486;28;20216;-83
2022/09/11 00:32:54;;;;;;;3.07;2.67;;;16.30;99.90;;;;;;5099048;28;20187;-84
2022/09/11 00:35:20;;;;;;;3.00;2.70;;;16.30;99.90;;;;;;5090283;28;20245;-85
2022/09/11 00:37:47;;;;;;;2.60;2.40;;;16.30;99.90;;;;;;5088448;28;20186;-85
2022/09/11 00:40:14;;;;;;;6.67;3.00;;;16.30;99.90;;;;;;5092494;28;20233;-85
2022/09/11 00:42:41;;;;;;;4.53;2.90;;;16.30;99.90;;;;;;5092661;28;20182;-85
2022/09/11 00:45:17;;;;;;;4.23;2.77;;;16.30;99.90;;;;;;5094932;28;20182;-84
2022/09/11 00:47:43;;;;;;;3.20;2.90;;;16.30;99.90;;;;;;5098054;28;20247;-84
2022/09/11 00:50:16;;;;;;;6.30;2.90;;;16.40;99.90;;;;;;5084088;28;20214;-84
2022/09/11 00:53:08;;;;;;;3.00;2.70;;;16.40;99.90;;;;;;5097801;28;20180;-84
2022/09/11 00:55:36;;;;;;;2.80;2.60;;;16.40;99.90;;;;;;5097805;28;20206;-83
2022/09/11 00:58:09;;;;;;;5.13;3.03;;;16.30;99.90;;;;;;5101474;28;20289;-83
2022/09/11 01:00:38;;;;;;;7.37;3.03;;;16.30;99.90;;;;;;5101574;28;20214;-84
2022/09/11 01:03:04;;;;;;;2.90;2.70;;;16.30;99.90;;;;;;5097275;28;20279;-84
2022/09/11 01:05:33;;;;;;;2.97;2.77;;;16.40;99.90;;;;;;5095717;28;20195;-83
2022/09/11 01:08:02;;;;;;;3.27;2.77;;;16.40;99.90;;;;;;5091682;28;20185;-84
2022/09/11 01:10:51;;;;;;;5.07;2.67;;;16.30;99.90;;;;;;5098244;28;20235;-84
2022/09/11 01:13:53;;;;;;;4.70;2.90;;;16.40;99.90;;;;;;5073878;28;20230;-84
2022/09/11 01:16:44;;;;;;;2.93;2.70;;;16.30;99.90;;;;;;5089769;28;20184;-83
2022/09/11 01:20:02;;;;;;;4.87;2.70;;;16.40;99.90;;;;;;5093002;28;20312;-83
2022/09/11 01:22:41;;;;;;;5.93;3.10;;;16.40;99.90;;;;;;5038155;28;20278;-84
2022/09/11 01:25:39;;;;;;;6.03;3.10;;;16.40;99.90;;;;;;5095525;28;20248;-83
2022/09/11 01:28:13;;;;;;;3.80;2.70;;;16.30;99.90;;;;;;5096129;28;20254;-83
2022/09/11 01:30:45;;;;;;;4.43;2.90;;;16.40;99.90;;;;;;5115093;28;20212;-82
2022/09/11 01:33:23;;;;;;;4.60;3.30;;;16.30;99.90;;;;;;5095514;28;20183;-83
2022/09/11 01:36:18;;;;;;;4.17;3.50;;;16.40;99.90;;;;;;5106733;28;20204;-84
2022/09/11 01:38:55;;;;;;;4.07;3.30;;;16.30;99.90;;;;;;5105944;28;20184;-84
2022/09/11 01:41:27;;;;;;;4.20;3.43;;;16.40;99.90;;;;;;5100897;28;20198;-84
2022/09/11 01:44:09;;;;;;;4.10;3.07;;;16.30;99.90;;;;;;5100626;28;20346;-82
2022/09/11 01:46:41;;;;;;;3.70;3.40;;;16.40;99.90;;;;;;5100511;28;20174;-83
2022/09/11 01:49:16;;;;;;;5.23;3.10;;;16.30;99.90;;;;;;5102370;28;20202;-82
2022/09/11 01:51:43;;;;;;;6.90;3.63;;;16.30;99.90;;;;;;5105539;28;20178;-81
2022/09/11 01:54:16;;;;;;;4.63;3.47;;;16.30;99.90;;;;;;5108082;27;20688;-84
2022/09/11 01:56:59;;;;;;;4.77;2.90;;;16.20;99.90;;;;;;5100192;28;20573;-84
2022/09/11 01:59:49;;;;;;;4.70;3.30;;;16.30;99.90;;;;;;5097441;28;20272;-84
2022/09/11 02:02:21;;;;;;;5.03;3.53;;;16.40;99.90;;;;;;5097914;28;20638;-84
2022/09/11 02:05:07;;;;;;;3.97;3.47;;;16.30;99.90;;;;;;5096496;28;20222;-84
2022/09/11 02:07:38;;;;;;;3.40;3.10;;;16.30;99.90;;;;;;5092588;28;20560;-84
2022/09/11 02:10:13;;;;;;;3.83;3.43;;;16.50;99.90;;;;;;5093512;28;20235;-84
2022/09/11 02:13:17;;;;;;;3.53;2.90;;;16.50;99.90;;;;;;5103798;28;20710;-84
2022/09/11 02:15:48;;;;;;;3.50;2.87;;;16.50;99.90;;;;;;5090564;28;20205;-84
2022/09/11 02:18:24;;;;;;;5.17;3.37;;;16.40;99.90;;;;;;5096151;28;20214;-84
2022/09/11 02:20:51;;;;;;;3.83;3.20;;;16.50;99.90;;;;;;5093696;28;20210;-84
2022/09/11 02:23:17;;;;;;;4.13;3.40;;;16.50;99.90;;;;;;5091256;28;20186;-85
2022/09/11 02:25:43;;;;;;;3.80;3.30;;;16.60;99.90;;;;;;5081818;28;20196;-84
2022/09/11 02:28:09;;;;;;;4.77;3.40;;;16.50;99.90;;;;;;5096414;28;20198;-84
2022/09/11 02:30:37;;;;;;;3.90;3.50;;;16.50;99.90;;;;;;5094663;28;20735;-84
2022/09/11 02:33:03;;;;;;;4.90;3.47;;;16.50;99.90;;;;;;5091013;28;20191;-84
2022/09/11 02:35:42;;;;;;;5.60;3.63;;;16.50;99.90;;;;;;5095920;28;20666;-84
2022/09/11 02:38:36;;;;;;;4.13;3.73;;;16.50;99.90;;;;;;5087669;28;20813;-84
2022/09/11 02:41:27;;;;;;;3.80;3.40;;;16.60;99.90;;;;;;5057976;28;20230;-84
2022/09/11 02:44:04;;;;;;;4.60;3.33;;;16.60;99.90;;;;;;5097599;28;20171;-83
2022/09/11 02:47:04;;;;;;;4.00;3.60;;;16.60;99.90;;;;;;5093067;28;20205;-85
2022/09/11 02:49:50;;;;;;;3.50;3.20;;;16.60;99.90;;;;;;5091354;28;20258;-84
2022/09/11 02:52:26;;;;;;;3.60;3.30;;;16.70;99.90;;;;;;5083248;28;20188;-84
2022/09/11 02:54:59;;;;;;;4.20;3.80;;;16.70;99.90;;;;;;5093025;28;20577;-84
2022/09/11 02:58:01;;;;;;;4.00;3.70;;;16.70;99.90;;;;;;5097195;28;20187;-84
2022/09/11 03:00:27;;;;;;;3.80;3.50;;;16.70;99.90;;;;;;5100199;28;20207;-85
2022/09/11 03:02:53;;;;;;;4.87;3.80;;;16.60;99.90;;;;;;5090406;28;20524;-84
2022/09/11 03:05:20;;;;;;;5.53;3.73;;;16.50;99.90;;;;;;5091623;28;20695;-84
2022/09/11 03:07:46;;;;;;;3.77;3.40;;;16.50;99.90;;;;;;5097544;28;20181;-84
2022/09/11 03:10:11;;;;;;;4.30;3.87;;;16.60;99.90;;;;;;5094493;28;20280;-84
2022/09/11 03:12:38;;;;;;;4.07;3.70;;;16.60;99.90;;;;;;5096162;28;20184;-83
2022/09/11 03:15:05;;;;;;;4.20;3.80;;;16.60;99.90;;;;;;5093589;28;20190;-84
2022/09/11 03:17:31;;;;;;;7.43;4.00;;;16.50;99.90;;;;;;5095745;28;20242;-84
2022/09/11 03:19:57;;;;;;;4.87;3.57;;;16.50;99.90;;;;;;5092078;28;20264;-85
2022/09/11 03:22:23;;;;;;;5.60;3.73;;;16.60;99.90;;;;;;5092752;28;20649;-85
2022/09/11 03:24:49;;;;;;;3.90;3.55;;;16.60;99.90;;;;;;5095135;28;20184;-84
2022/09/11 03:27:14;;;;;;;6.50;3.60;;;16.50;99.90;;;;;;5094573;28;20182;-85
2022/09/11 03:29:40;;;;;;;3.60;3.27;;;16.70;99.90;;;;;;5091608;28;20208;-84
2022/09/11 03:32:06;;;;;;;4.15;3.45;;;16.70;99.90;;;;;;5095054;28;20194;-84
2022/09/11 03:34:32;;;;;;;4.97;3.73;;;16.70;99.90;;;;;;5092420;28;20690;-83
2022/09/11 03:36:58;;;;;;;4.80;3.40;;;16.70;99.90;;;;;;5096576;28;20216;-84
2022/09/11 03:39:24;;;;;;;3.90;3.60;;;16.50;99.90;;;;;;5098190;28;20293;-84
2022/09/11 03:41:50;;;;;;;4.27;3.43;;;16.50;99.90;;;;;;5096463;28;20212;-84
2022/09/11 03:44:16;;;;;;;4.57;3.50;;;16.50;99.90;;;;;;5094247;28;20187;-84
2022/09/11 03:46:42;;;;;;;4.57;3.57;;;16.50;99.90;;;;;;5091608;28;20299;-85
2022/09/11 03:49:08;;;;;;;4.37;4.03;;;16.50;99.90;;;;;;5090377;28;20208;-84
2022/09/11 03:51:34;;;;;;;7.20;4.00;;;16.30;99.90;;;;;;5094271;28;20181;-84
2022/09/11 03:53:59;;;;;;;4.20;3.60;;;16.30;99.90;;;;;;5098128;28;20717;-85
2022/09/11 03:56:27;;;;;;;5.70;4.10;;;16.20;99.90;;;;;;5096667;28;20234;-85
2022/09/11 03:58:57;;;;;;;3.80;3.50;;;16.30;99.90;;;;;;5092872;28;20210;-84
2022/09/11 04:01:23;;;;;;;6.67;3.80;;;16.30;99.90;;;;;;5096051;28;20202;-84
2022/09/11 04:03:49;;;;;;;8.60;4.10;;;16.30;99.90;;;;;;5094758;28;20199;-84
2022/09/11 04:06:15;;;;;;;4.27;3.87;;;16.30;99.90;;;;;;5096728;28;20190;-84
2022/09/11 04:08:41;;;;;;;4.50;4.10;;;16.20;99.90;;;;;;5096497;28;20184;-84
2022/09/11 04:11:10;;;;;;;4.10;3.77;;;16.30;99.90;;;;;;5093983;28;20267;-85
2022/09/11 04:13:37;;;;;;;5.87;4.23;;;16.30;99.90;;;;;;5092838;28;20203;-84
2022/09/11 04:16:15;;;;;;;4.60;3.97;;;16.20;99.90;;;;;;5095870;28;20204;-84
2022/09/11 04:18:42;;;;;;;5.50;3.90;;;16.20;99.90;;;;;;5085935;28;20242;-85
2022/09/11 04:21:13;;;;;;;4.40;4.00;;;16.30;99.90;;;;;;5095657;28;20216;-84
2022/09/11 04:23:40;;;;;;;5.17;4.30;;;16.20;99.90;;;;;;5099532;28;20187;-85
2022/09/11 04:26:14;;;;;;;5.73;4.10;;;16.20;99.90;;;;;;5089900;28;20279;-84
2022/09/11 04:28:40;;;;;;;5.70;4.17;;;16.20;99.90;;;;;;5095044;28;20205;-85
2022/09/11 04:31:06;;;;;;;6.20;4.57;;;16.30;99.90;;;;;;5091297;28;20218;-84
2022/09/11 04:33:34;;;;;;;4.70;4.30;;;16.40;99.90;;;;;;5088042;28;20258;-83
2022/09/11 04:36:08;;;;;;;4.70;4.23;;;16.40;99.90;;;;;;5094169;28;20248;-84
2022/09/11 04:38:35;;;;;;;4.60;4.20;;;16.50;99.90;;;;;;5107172;28;20160;-82
2022/09/11 04:41:02;;;;;;;4.60;3.83;;;16.50;99.90;;;;;;5103269;28;20252;-82
2022/09/11 04:43:30;;;;;;;6.28;4.35;;;16.50;99.90;;;;;;5105380;28;20212;-83
2022/09/11 04:46:06;;;;;;;5.65;3.80;;;16.60;99.90;;;;;;5086651;28;20187;-84
2022/09/11 04:48:33;;;;;;;4.43;3.97;;;16.60;99.90;;;;;;5096831;28;20282;-85
2022/09/11 04:51:05;;;;;;;6.82;4.15;;;16.60;99.90;;;;;;5087261;28;20206;-85
2022/09/11 04:53:32;;;;;;;4.90;4.40;;;16.60;99.90;;;;;;5096945;28;20295;-84
2022/09/11 04:56:03;;;;;;;6.18;4.47;;;16.60;99.90;;;;;;5093576;28;20185;-85
2022/09/11 04:58:29;;;;;;;4.93;4.43;;;16.70;99.90;;;;;;5092164;28;20201;-84
2022/09/11 05:00:54;;;;;;;4.57;4.18;;;16.60;99.90;;;;;;5090849;28;20218;-84
2022/09/11 05:03:20;;;;;;;5.13;4.72;;;16.60;99.90;;;;;;5092747;28;20231;-85
2022/09/11 05:05:45;;;;;;;4.90;4.40;;;16.60;99.90;;;;;;5091189;28;20210;-85
2022/09/11 05:08:11;;;;;;;4.57;4.28;;;16.60;99.90;;;;;;5092691;28;20197;-84
2022/09/11 05:10:37;;;;;;;4.97;4.25;;;16.50;99.90;;;;;;5089195;28;20233;-84
2022/09/11 05:13:03;;;;;;;4.78;3.80;;;16.60;99.90;;;;;;5092815;28;20195;-84
2022/09/11 05:15:32;;;;;;;5.40;4.30;;;16.60;99.90;;;;;;5091541;28;20188;-85
2022/09/11 05:17:58;;;;;;;4.88;4.47;;;16.60;99.90;;;;;;5089329;28;20868;-84
2022/09/11 05:20:24;;;;;;;4.55;4.13;;;16.60;99.90;;;;;;5093731;28;20214;-85
2022/09/11 05:22:50;;;;;;;5.25;4.05;;;16.70;99.90;;;;;;5092036;28;20222;-84
2022/09/11 05:25:17;;;;;;;4.88;4.45;;;16.70;99.90;;;;;;5088854;28;20184;-85
2022/09/11 05:27:43;;;;;;;4.97;4.57;;;16.80;99.90;;;;;;5094947;28;20190;-84
2022/09/11 05:30:10;;;;;;;4.97;4.57;;;16.80;99.90;;;;;;5094568;28;20205;-84
2022/09/11 05:32:35;;;;;;;8.23;4.68;;;16.70;99.90;;;;;;5095785;28;20182;-85
2022/09/11 05:35:06;;;;;;;8.70;4.75;;;16.60;99.90;;;;;;5095176;28;20178;-83
2022/09/11 05:37:31;;;;;;;6.88;5.00;;;16.70;99.90;;;;;;5095649;28;20201;-83
2022/09/11 05:39:58;;;;;;;6.47;4.97;;;16.70;99.90;;;;;;5093587;28;20221;-84
2022/09/11 05:42:23;;;;;;;5.50;5.10;;;16.80;99.90;;;;;;5093687;28;20190;-84
2022/09/11 05:44:49;;;;;;;5.70;5.10;;;16.70;99.90;;;;;;5095929;28;20182;-84
2022/09/11 05:47:15;;;;;;;4.57;4.20;;;16.80;99.90;;;;;;5095082;28;20210;-84
2022/09/11 05:49:40;;;;;;;5.13;4.82;;;16.70;99.90;;;;;;5088829;28;20210;-85
2022/09/11 05:52:06;;;;;;;5.32;4.82;;;16.70;99.90;;;;;;5094601;28;20212;-84
2022/09/11 05:54:32;;;;;;;5.32;4.82;;;16.70;99.90;;;;;;5088363;28;20187;-84
2022/09/11 05:56:57;;;;;;;5.45;4.93;;;16.60;99.90;;;;;;5101388;28;20220;-83
2022/09/11 05:59:23;;;;;;;6.95;5.43;;;16.70;99.90;;;;;;5087085;28;20213;-83
2022/09/11 06:01:49;;;;;;;5.00;4.50;;;16.70;99.90;;;;;;5101002;28;20220;-82
2022/09/11 06:04:17;;;;;;;6.03;4.85;;;16.90;99.90;;;;;;5093128;28;20183;-83
2022/09/11 06:06:46;;;;;;;5.25;4.65;;;16.80;99.90;;;;;;5093816;28;20185;-83
2022/09/11 06:09:12;;;;;;;5.50;5.03;;;16.90;99.90;;;;;;5097044;28;20209;-83
2022/09/11 06:11:38;;;;;;;5.07;4.60;;;16.90;99.90;;;;;;5103702;28;20260;-83
2022/09/11 06:14:03;;;;;;;4.90;4.53;;;16.90;99.90;;;;;;5097555;28;20198;-83
2022/09/11 06:16:30;;;;;;;6.70;4.90;;;16.90;99.90;;;;;;5093112;28;20308;-83
2022/09/11 06:18:56;;;;;;;6.47;5.45;;;16.90;99.90;;;;;;5098253;28;20177;-83
2022/09/11 06:21:24;;;;;;;5.80;5.20;;;16.80;99.90;;;;;;5091644;28;20206;-83
2022/09/11 06:23:51;;;;;;;5.78;5.28;;;17.00;99.90;;;;;;5098775;28;20224;-83
2022/09/11 06:26:22;;;;;;;5.53;4.93;;;16.90;99.90;;;;;;5095580;28;20170;-84
2022/09/11 06:28:49;;;;;;;5.68;5.13;;;17.00;99.90;;;;;;5102919;28;20227;-84
2022/09/11 06:31:18;;;;;;;7.78;5.10;;;17.00;99.90;;;;;;5105667;28;20200;-83
2022/09/11 06:33:44;;;;;;;5.78;5.38;;;17.10;99.90;;;;;;5095030;28;20209;-84
2022/09/11 06:36:13;;;;;;;5.85;5.25;;;17.00;99.90;;;;;;5099358;28;20675;-83
2022/09/11 06:38:39;;;;;;;12.82;8.80;;;17.00;99.90;;;;;;5100450;28;20189;-84
2022/09/11 06:41:07;;;;;;;5.70;5.20;;;17.00;99.90;;;;;;5094361;28;20216;-83
2022/09/11 06:43:33;;;;;;;5.80;5.30;;;17.00;99.90;;;;;;5094654;28;20191;-84
2022/09/11 06:46:13;;;;;;;6.80;5.38;;;17.00;99.90;;;;;;5102668;28;20264;-83
2022/09/11 06:48:43;;;;;;;6.20;5.57;;;17.00;99.90;;;;;;5097927;28;20184;-83
2022/09/11 06:51:11;;;;;;;7.93;5.57;;;17.00;99.90;;;;;;5096777;28;20212;-84
2022/09/11 06:53:38;;;;;;;7.15;5.63;;;17.00;99.90;;;;;;5103345;28;20203;-84
2022/09/11 06:56:05;;;;;;;6.35;5.80;;;17.00;99.90;;;;;;5094564;28;20195;-84
2022/09/11 06:58:31;;;;;;;8.55;6.00;;;17.00;99.90;;;;;;5100226;28;20299;-85
2022/09/11 07:01:11;;;;;;;6.57;5.95;;;17.10;99.90;;;;;;5094435;28;20213;-85
2022/09/11 07:03:37;;;;;;;5.90;5.40;;;17.20;99.90;;;;;;5102491;28;20195;-85
2022/09/11 07:06:05;;;;;;;6.75;5.60;;;17.40;99.90;;;;;;5090700;28;20197;-85
2022/09/11 07:08:30;;;;;;;6.20;5.47;;;17.40;99.90;;;;;;5085546;28;20181;-87
2022/09/11 07:11:03;;;;;;;6.40;5.90;;;17.20;99.90;;;;;;5091261;28;20239;-85
2022/09/11 07:13:31;;;;;;;6.13;5.53;;;17.40;99.90;;;;;;5092623;28;20220;-85
2022/09/11 07:16:01;;;;;;;6.88;6.28;;;17.40;99.90;;;;;;5095800;28;20190;-86
2022/09/11 07:18:35;;;;;;;6.45;5.85;;;17.30;99.90;;;;;;5089038;28;20185;-86
2022/09/11 07:21:11;;;;;;;10.68;6.22;;;17.30;99.90;;;;;;5092524;28;20213;-87
2022/09/11 07:23:39;;;;;;;8.77;6.15;;;17.30;99.90;;;;;;5097513;28;20607;-87
2022/09/11 07:26:10;;;;;;;6.65;6.15;;;17.30;99.90;;;;;;5102655;28;20210;-88
2022/09/11 07:28:36;;;;;;;8.02;6.28;;;17.50;99.90;;;;;;5109198;28;20220;-87
2022/09/11 07:31:09;;;;;;;7.65;6.10;;;17.50;99.90;;;;;;5108125;28;20200;-84
2022/09/11 07:33:36;;;;;;;7.30;6.70;;;17.60;99.90;;;;;;5100616;28;20193;-86
2022/09/11 07:36:10;;;;;;;7.85;6.95;;;17.60;99.90;;;;;;5094206;28;20323;-86
2022/09/11 07:38:38;;;;;;;7.75;6.85;;;17.50;99.90;;;;;;5092341;28;20414;-85
2022/09/11 07:41:04;;;;;;;10.50;7.43;;;17.60;99.90;;;;;;5089199;28;20235;-86
2022/09/11 07:43:30;;;;;;;7.68;6.70;;;17.80;99.90;;;;;;5101665;28;20219;-87
2022/09/11 07:45:57;;;;;;;8.02;6.68;;;18.00;99.90;;;;;;5096441;28;20178;-86
2022/09/11 07:48:22;;;;;;;12.65;7.57;;;17.90;99.90;;;;;;5097829;28;20776;-86
2022/09/11 07:51:01;;;;;;;8.35;7.55;;;18.00;99.90;;;;;;5093182;28;20246;-88
2022/09/11 07:53:30;;;;;;;11.60;7.28;;;18.20;99.90;;;;;;5092570;28;20772;-91
2022/09/11 07:56:02;;;;;;;7.75;7.05;;;18.40;99.20;;;;;;5089809;28;20316;-90
2022/09/11 07:58:34;;;;;;;7.85;7.15;;;18.40;99.90;;;;;;5102007;28;20162;-90
2022/09/11 08:01:02;;;;;;;7.90;7.30;;;18.40;99.50;;;;;;5100085;28;20230;-89
2022/09/11 08:03:29;;;;;;;8.70;7.22;;;18.50;99.60;;;;;;5106315;28;20187;-91
2022/09/11 08:06:08;;;;;;;8.68;7.93;;;18.60;98.30;;;;;;5108784;28;20179;-90
2022/09/11 08:08:35;;;;;;;8.23;7.45;;;18.40;99.70;;;;;;5106602;28;20182;-89
2022/09/11 08:11:05;;;;;;;10.27;7.93;;;18.40;99.90;;;;;;5102363;28;20202;-89
2022/09/11 08:13:32;;;;;;;8.82;8.00;;;18.30;99.90;;;;;;5102327;28;20202;-88
2022/09/11 08:15:57;;;;;;;8.57;7.78;;;18.20;99.90;;;;;;5102722;28;20194;-89
2022/09/11 08:18:23;;;;;;;8.80;7.50;;;18.30;99.90;;;;;;5104849;28;20191;-89
2022/09/11 08:20:49;;;;;;;8.75;7.85;;;18.50;99.00;;;;;;5104060;28;20335;-89
2022/09/11 08:23:15;;;;;;;9.07;8.27;;;18.50;97.90;;;;;;5083071;28;20188;-89
2022/09/11 08:25:42;;;;;;;8.82;8.10;;;18.30;99.50;;;;;;5083752;28;20196;-90
2022/09/11 08:28:08;;;;;;;8.15;7.35;;;18.30;99.20;;;;;;5090922;28;20175;-89
2022/09/11 08:30:37;;;;;;;8.77;8.07;;;18.40;99.30;;;;;;5102567;28;20224;-90
2022/09/11 08:33:05;;;;;;;8.15;7.35;;;18.30;99.40;;;;;;5102970;28;20238;-90
2022/09/11 08:35:32;;;;;;;8.95;7.90;;;18.50;98.90;;;;;;5102013;28;20213;-89
2022/09/11 08:37:58;;;;;;;9.35;8.40;;;18.50;99.40;;;;;;5102659;28;20179;-89
2022/09/11 08:40:26;;;;;;;8.52;7.93;;;18.50;98.70;;;;;;5102271;28;20264;-88
2022/09/11 08:42:55;;;;;;;9.00;8.23;;;18.30;99.70;;;;;;5103365;28;20186;-88
2022/09/11 08:45:27;;;;;;;7.95;7.35;;;18.30;99.70;;;;;;5102178;28;20194;-88
2022/09/11 08:47:55;;;;;;;9.52;8.65;;;18.30;99.70;;;;;;5099179;28;20187;-88
2022/09/11 08:50:34;;;;;;;8.32;7.63;;;18.30;99.80;;;;;;5102380;28;20233;-89
2022/09/11 08:53:01;;;;;;;8.88;7.72;;;18.30;99.90;;;;;;5101873;28;20761;-89
2022/09/11 08:55:48;;;;;;;8.23;7.63;;;18.40;99.50;;;;;;5103965;28;20612;-90
2022/09/11 08:58:39;;;;;;;7.95;7.35;;;18.40;99.90;;;;;;5102386;28;20192;-88
2022/09/11 09:01:46;;;;;;;8.40;7.70;;;18.50;99.50;;;;;;5103729;28;20203;-89
2022/09/11 09:04:25;;;;;;;8.07;7.47;;;18.90;98.20;;;;;;5091226;28;20209;-90
2022/09/11 09:07:18;;;;;;;9.02;8.18;;;19.20;95.20;;;;;;5104076;28;20163;-88
2022/09/11 09:09:58;;;;;;;8.23;7.53;;;19.20;94.90;;;;;;5117417;28;20241;-92
2022/09/11 09:12:45;;;;;;;8.35;7.53;;;19.10;96.10;;;;;;5120101;28;20196;-93
2022/09/11 09:15:17;;;;;;;9.10;8.30;;;19.20;94.80;;;;;;5120148;28;20174;-92
2022/09/11 09:17:51;;;;;;;8.55;7.85;;;19.20;93.60;;;;;;5114764;28;20175;-88
2022/09/11 09:20:20;;;;;;;8.25;7.60;;;19.40;94.40;;;;;;5103339;28;20264;-88
2022/09/11 09:23:19;;;;;;;7.65;7.07;;;19.50;93.70;;;;;;5103808;28;20660;-88
2022/09/11 09:25:47;;;;;;;8.07;7.25;;;19.90;92.80;;;;;;5103217;28;20200;-88
2022/09/11 09:28:30;;;;;;;8.27;6.93;;;20.10;91.70;;;;;;5102033;28;20187;-88
2022/09/11 09:30:57;;;;;;;8.20;7.38;;;20.00;89.70;;;;;;5101683;28;20229;-89
2022/09/11 09:33:50;;;;;;;8.60;8.07;;;20.20;89.90;;;;;;5102735;28;20194;-90
2022/09/11 09:36:34;;;;;;;7.47;6.88;;;20.40;87.20;;;;;;5085322;28;20217;-88
2022/09/11 09:39:01;;;;;;;7.38;6.78;;;20.60;87.30;;;;;;5102549;28;20241;-86
2022/09/11 09:41:55;;;;;;;7.90;7.28;;;20.60;87.10;;;;;;5084327;28;20229;-88
2022/09/11 09:44:49;;;;;;;7.43;6.75;;;20.80;84.70;;;;;;5101519;28;20209;-89
2022/09/11 09:47:16;;;;;;;12.10;11.10;;;21.20;83.70;;;;;;5097461;28;20186;-87
2022/09/11 09:49:42;;;;;;;7.40;6.80;;;21.40;81.40;;;;;;5101935;28;20250;-89
2022/09/11 09:52:32;;;;;;;7.68;6.97;;;21.50;80.10;;;;;;5072934;28;20319;-88
2022/09/11 09:55:04;;;;;;;7.35;6.80;;;21.50;80.80;;;;;;5092666;28;20256;-88
2022/09/11 09:57:35;;;;;;;7.88;7.28;;;21.50;81.50;;;;;;5078808;28;20241;-88
2022/09/11 10:00:24;;;;;;;7.57;7.05;;;21.50;81.40;;;;;;5068715;28;20232;-89
2022/09/11 10:02:55;;;;;;;7.65;7.15;;;21.50;81.80;;;;;;5097619;28;20164;-88
2022/09/11 10:05:26;;;;;;;8.55;7.78;;;21.50;80.40;;;;;;5097256;28;20262;-88
2022/09/11 10:07:57;;;;;;;7.55;6.95;;;21.50;80.70;;;;;;5075749;28;20182;-90
2022/09/11 10:10:33;;;;;;;7.78;7.18;;;21.10;80.80;;;;;;5077615;28;20214;-88
2022/09/11 10:13:23;;;;;;;8.23;7.63;;;21.00;81.50;;;;;;5089907;28;20186;-88
2022/09/11 10:15:51;;;;;;;8.07;7.38;;;20.80;83.90;;;;;;5095974;28;20214;-93
2022/09/11 10:18:34;;;;;;;8.10;7.50;;;20.90;84.40;;;;;;5116867;28;20175;-90
2022/09/11 10:21:12;;;;;;;7.93;7.35;;;20.80;84.00;;;;;;5090140;28;20207;-88
2022/09/11 10:23:52;;;;;;;7.70;7.10;;;21.20;80.10;;;;;;5092410;28;20175;-88
2022/09/11 10:26:21;;;;;;;8.05;7.40;;;21.70;79.50;;;;;;5098891;28;20175;-90
2022/09/11 10:28:48;;;;;;;7.45;6.75;;;21.80;77.30;;;;;;5099241;28;20920;-90
2022/09/11 10:31:17;;;;;;;7.72;7.13;;;22.10;75.90;;;;;;5100047;28;20183;-90
2022/09/11 10:33:59;;;;;;;8.10;7.40;;;22.00;78.00;;;;;;5103539;28;20936;-90
2022/09/11 10:36:27;;;;;;;7.30;6.70;;;21.80;78.30;;;;;;5094562;28;20238;-89
2022/09/11 10:38:55;;;;;;;7.20;6.70;;;21.50;79.70;;;;;;5095226;28;20182;-88
2022/09/11 10:41:31;;;;;;;7.25;6.57;;;21.40;78.80;;;;;;5095621;28;20210;-88
2022/09/11 10:44:01;;;;;;;7.85;7.15;;;21.00;81.20;;;;;;5088222;28;20265;-90
2022/09/11 10:46:39;;;;;;;7.25;6.65;;;20.80;82.90;;;;;;5091401;28;20186;-89
2022/09/11 10:49:04;;;;;;;7.63;7.03;;;20.80;81.00;;;;;;5094616;28;20182;-90
2022/09/11 10:51:41;;;;;;;7.38;6.68;;;20.70;82.60;;;;;;5094700;28;20188;-90
2022/09/11 10:54:25;;;;;;;7.53;6.93;;;20.70;83.80;;;;;;5090433;28;20183;-89
2022/09/11 10:57:23;;;;;;;7.40;6.80;;;20.60;83.80;;;;;;5085542;28;20189;-90
2022/09/11 11:00:10;;;;;;;6.88;6.47;;;20.60;83.90;;;;;;5073270;28;20877;-90
2022/09/11 11:02:39;;;;;;;7.75;7.05;;;20.80;84.10;;;;;;5078587;28;20236;-90
2022/09/11 11:05:12;;;;;;;7.47;6.88;;;21.00;81.50;;;;;;5087078;28;20257;-89
2022/09/11 11:07:57;;;;;;;6.40;5.90;;;21.80;75.50;;;;;;5079085;28;20183;-90
2022/09/11 11:10:43;;;;;;;6.65;6.15;;;22.40;74.60;;;;;;5090576;28;20274;-89
2022/09/11 11:13:31;;;;;;;6.70;6.18;;;22.90;71.00;;;;;;5088115;28;20187;-90
2022/09/11 11:16:20;;;;;;;6.00;5.40;;;22.60;70.20;;;;;;5083298;28;20217;-91
2022/09/11 11:19:15;;;;;;;5.95;5.45;;;22.50;71.40;;;;;;5079765;28;20282;-90
2022/09/11 11:21:47;;;;;;;5.70;5.28;;;22.30;73.10;;;;;;5039693;28;20231;-90
2022/09/11 11:24:21;;;;;;;5.95;5.55;;;22.20;69.60;;;;;;5088969;28;20255;-90
2022/09/11 11:27:08;;;;;;;6.78;6.07;;;22.10;70.00;;;;;;5093638;28;20183;-90
2022/09/11 11:29:49;;;;;;;6.07;5.68;;;22.00;70.60;;;;;;5096988;28;20704;-90
2022/09/11 11:32:49;;;;;;;8.25;6.72;;;22.10;71.10;;;;;;5098259;28;20273;-90
2022/09/11 11:35:22;;;;;;;5.90;5.43;;;22.30;69.50;;;;;;5100492;28;20977;-90
2022/09/11 11:37:51;;;;;;;5.78;5.38;;;22.40;69.50;;;;;;5101195;28;20672;-90
2022/09/11 11:40:28;;;;;;;7.00;6.50;;;22.40;68.60;;;;;;5093736;28;20207;-90
2022/09/11 11:43:09;;;;;;;6.43;5.72;;;22.50;70.20;;;;;;5088029;28;20523;-90
2022/09/11 11:45:48;;;;;;;6.00;5.60;;;23.10;66.60;;;;;;5101573;28;20179;-90
2022/09/11 11:48:39;;;;;;;6.20;5.70;;;23.60;64.70;;;;;;5098438;28;20175;-90
2022/09/11 11:51:15;;;;;;;5.95;5.55;;;24.40;64.50;;;;;;5089713;28;20581;-90
2022/09/11 11:54:05;;;;;;;5.95;5.57;;;24.50;60.80;;;;;;5099747;28;21548;-90
2022/09/11 11:56:50;;;;;;;5.75;5.35;;;24.90;61.80;;;;;;5096534;28;20187;-88
2022/09/11 11:59:40;;;;;;;5.90;5.50;;;24.90;60.90;;;;;;5087882;28;20237;-91
2022/09/11 12:02:06;;;;;;;5.97;5.50;;;24.80;59.40;;;;;;5093287;28;20294;-90
2022/09/11 12:04:55;;;;;;;5.63;5.13;;;24.70;59.30;;;;;;5102505;28;20210;-90
2022/09/11 12:07:25;;;;;;;5.82;5.43;;;25.00;60.60;;;;;;5099864;28;20175;-90
2022/09/11 12:09:53;;;;;;;5.55;4.82;;;25.30;57.90;;;;;;5094009;28;20255;-90
2022/09/11 12:12:21;;;;;;;5.50;4.97;;;25.50;57.20;;;;;;5099385;28;20663;-90
2022/09/11 12:15:14;;;;;;;5.15;4.82;;;25.60;55.10;;;;;;5100268;28;20201;-90
2022/09/11 12:17:40;;;;;;;4.95;4.65;;;25.30;55.70;;;;;;5098070;28;20272;-91
2022/09/11 12:20:09;;;;;;;5.20;4.80;;;25.60;52.00;;;;;;5097304;28;20210;-91
2022/09/11 12:22:46;;;;;;;5.07;4.63;;;25.60;55.00;;;;;;5097893;28;20186;-91
2022/09/11 12:25:20;;;;;;;6.30;5.00;;;25.80;53.60;;;;;;5098154;28;20174;-90
2022/09/11 12:27:47;;;;;;;4.05;3.75;;;25.80;54.20;;;;;;5092749;28;20182;-91
2022/09/11 12:30:15;;;;;;;5.32;4.78;;;25.40;52.10;;;;;;5097684;28;20203;-90
2022/09/11 12:32:48;;;;;;;4.80;4.40;;;25.50;54.70;;;;;;5093135;28;20194;-91
2022/09/11 12:35:42;;;;;;;4.80;4.50;;;25.80;53.20;;;;;;5088077;28;20243;-90
2022/09/11 12:38:08;;;;;;;5.28;4.88;;;25.90;52.70;;;;;;5095160;28;20186;-89
2022/09/11 12:40:52;;;;;;;5.15;4.85;;;26.40;51.70;;;;;;5093995;28;20195;-89
2022/09/11 12:43:44;;;;;;;4.88;4.47;;;26.40;51.70;;;;;;5090952;28;20179;-89
2022/09/11 12:46:22;;;;;;;4.78;4.32;;;26.20;50.50;;;;;;5094383;28;20265;-90
2022/09/11 12:48:49;;;;;;;4.15;3.88;;;26.40;48.00;;;;;;5088465;28;20189;-90
2022/09/11 12:51:29;;;;;;;4.93;4.53;;;26.70;49.00;;;;;;5091333;28;20179;-90
2022/09/11 12:54:04;;;;;;;4.93;4.55;;;26.60;48.50;;;;;;5090502;28;20191;-89
2022/09/11 12:56:35;;;;;;;4.75;4.38;;;26.10;50.50;;;;;;5095396;28;20204;-90
2022/09/11 12:59:08;;;;;;;4.72;4.25;;;26.70;48.90;;;;;;5093316;28;20192;-89
2022/09/11 13:01:42;;;;;;;4.47;4.07;;;26.40;49.40;;;;;;5099725;28;20221;-88
2022/09/11 13:04:08;;;;;;;4.25;3.95;;;25.90;51.30;;;;;;5106615;28;20183;-90
2022/09/11 13:06:48;;;;;;;4.95;4.55;;;26.10;51.50;;;;;;5094783;28;20455;-88
2022/09/11 13:09:22;;;;;;;4.50;4.20;;;26.70;49.70;;;;;;5091592;28;20210;-88
2022/09/11 13:11:53;;;;;;;4.85;4.20;;;26.60;48.80;;;;;;5086132;28;20598;-88
2022/09/11 13:14:27;;;;;;;4.32;4.03;;;26.20;50.80;;;;;;5094550;28;20197;-89